Архив погоды в Завитае

Метеограмма Завитая
Понедельник, 25 Июня
Время местн. Темп Ветер Видим Явления Облачность нижн/средн/верх Атм. давл. Влжн Точка росы ВНГО R Сост. почвы Tg s
Напр Скр Прв ур.ст ур.м изм
09:00 +16.5° Ю 3 10 20 км - облачно с прояснениями 737 758 +0.1 68% +10.6° 1.5 км 0 Сухая (без трещин) +11° -
06:00 +13.3° Ю,Ю-В 5 - 20 км - облачно 737 758 +0.7 85% +10.8° 1.5 км - - - -
03:00 +12.7° Ю-В 3 - 20 км - облачно 736 757 +0.7 83% +9.9° 1.5 км - - - -
00:00 +15.1° Ю-В 2 - 20 км - облачно с прояснениями 735 756 +0.2 69% +9.5° 1.5 км - - - -
Воскресенье, 24 Июня
Время местн. Темп Ветер Видим Явления Облачность нижн/средн/верх Атм. давл. Влжн Точка росы ВНГО R Сост. почвы Tg s
Напр Скр Прв ур.ст ур.м изм
21:00 +18.1° В 1 - 20 км - переменная облачность 735 756 +0.5 63% +10.9° 1.5 км 0 - - -
18:00 +23.2° Ю-В 1 - 20 км - облачно с прояснениями - - - - - 1 км - - - -
15:00 +22.7° С-В 2 - 20 км - облачно с прояснениями 734 755 -0.3 44% +9.7° более 2.5 км - - - -
12:00 +20.7° С,С-З 2 - 20 км - переменная облачность 735 755 0 51% +10.2° более 2.5 км - - - -
09:00 +16.3° С 2 - более 50 км - переменная облачность 735 756 +0.5 63% +9.2° более 2.5 км 0 Влажная (без луж) +9° -
06:00 +10.2° С 2 - 50 км - ясно 734 756 +0.8 81% +7° более 2.5 км - - - -
03:00 +9.2° С 2 - 20 км - ясно 733 755 +0.5 83% +6.5° более 2.5 км - - - -
00:00 +11.2° С 4 - 20 км - переменная облачность 733 754 +0.2 75% +6.9° более 2.5 км - - - -
Суббота, 23 Июня
Время местн. Темп Ветер Видим Явления Облачность нижн/средн/верх Атм. давл. Влжн Точка росы ВНГО R Сост. почвы Tg s
Напр Скр Прв ур.ст ур.м изм
21:00 +15.5° С 3 - 20 км - переменная облачность 733 754 +1.2 59% +7.5° - 0 - - -
18:00 +19.7° С 4 11 20 км - переменная облачность 732 752 +0.5 47% +8.1° 1 км - - - -
15:00 +20° С 4 - 20 км - переменная облачность 731 752 +0.3 55% +10.7° 1 км - - - -
12:00 +16.5° С,С-З 3 - 20 км - облачно 731 752 +0.8 72% +11.4° 1 км - - - -
09:00 +15.1° С 3 - 20 км - облачно с прояснениями 730 751 +1.1 73% +10.4° 1 км 0 Влажная (без луж) - -
06:00 +13.2° С 3 - 20 км - облачно 729 750 +1.1 84% +10.6° 1 км - - - -
03:00 +12.8° З,С-З 3 - 20 км - облачно 728 749 +0.3 88% +10.9° 1 км - - - -
00:00 +14° С-З 2 - 20 км зарница облачно 727 748 +0.7 85% +11.5° 1 км - - - -
Пятница, 22 Июня
Время местн. Темп Ветер Видим Явления Облачность нижн/средн/верх Атм. давл. Влжн Точка росы ВНГО R Сост. почвы Tg s
Напр Скр Прв ур.ст ур.м изм
21:00 +14.7° З,Ю-З 1 - 20 км гроза в последний час, слабый дождь {ливневые осадки} преимущественно облачно 727 748 +1.1 86% +12.4° 1 км 2 - - -
18:00 +20.1° С,С-В 3 14 20 км облака рассеиваются {гроза, ливневые осадки} переменная облачность 726 746 +1.9 66% +13.5° 1 км - - - -
15:00 +25.2° З,С-З 4 - 20 км - облачно с прояснениями 724 744 -1.6 51% +14.3° 1 км - - - -
12:00 +23.4° З 4 - 20 км - переменная облачность 725 746 -1.1 55% +13.8° 1 км - - - -
09:00 +19.8° Ю-З 3 - 20 км - облачно с прояснениями 726 747 +0.5 65% +13° 1.5 км 0 Влажная (без луж) +9° -
06:00 +13.4° Ю 2 - 20 км - переменная облачность 727 748 -0.1 84% +10.7° 1.5 км - - - -